createdAt,value
2018-11-27T00:00:25.578Z,53.17
2018-11-27T00:02:57.973Z,51.57
2018-11-27T00:05:26.918Z,57.30
2018-11-27T00:07:55.589Z,65.07
2018-11-27T00:10:24.239Z,51.23
2018-11-27T00:12:52.983Z,56.00
2018-11-27T00:15:21.579Z,62.10
2018-11-27T00:17:50.059Z,54.70
2018-11-27T00:20:18.544Z,52.87
2018-11-27T00:22:47.059Z,59.80
2018-11-27T00:25:16.903Z,64.73
2018-11-27T00:27:45.456Z,58.00
2018-11-27T00:30:15.527Z,55.70
2018-11-27T00:32:44.042Z,57.03
2018-11-27T00:35:14.764Z,54.40
2018-11-27T00:37:43.239Z,52.50
2018-11-27T00:40:17.455Z,60.90
2018-11-27T00:42:45.969Z,47.83
2018-11-27T00:45:15.731Z,49.43
2018-11-27T00:47:45.264Z,46.30
2018-11-27T00:50:14.962Z,44.77
2018-11-27T00:52:43.454Z,51.03
2018-11-27T00:55:14.063Z,47.60
2018-11-27T00:57:43.379Z,45.60
2018-11-27T01:00:19.183Z,39.53
2018-11-27T01:02:48.316Z,43.73
2018-11-27T01:05:18.017Z,45.53
2018-11-27T01:07:46.598Z,45.87
2018-11-27T01:10:17.159Z,41.43
2018-11-27T01:12:45.658Z,41.23
2018-11-27T01:15:14.776Z,42.63
2018-11-27T01:17:45.648Z,42.27
2018-11-27T01:20:15.470Z,44.90
2018-11-27T01:22:44.050Z,44.00
2018-11-27T01:25:13.079Z,34.87
2018-11-27T01:27:41.564Z,37.80
2018-11-27T01:30:16.370Z,37.17
2018-11-27T01:32:45.059Z,37.50
2018-11-27T01:35:15.471Z,33.53
2018-11-27T01:37:44.303Z,34.43
2018-11-27T01:40:15.940Z,33.47
2018-11-27T01:42:44.627Z,27.80
2018-11-27T01:45:14.111Z,32.10
2018-11-27T01:47:42.683Z,29.70
2018-11-27T01:50:13.434Z,30.67
2018-11-27T01:52:42.128Z,30.67
2018-11-27T01:55:13.578Z,25.40
2018-11-27T01:57:42.042Z,26.40
2018-11-27T02:00:20.749Z,25.80
2018-11-27T02:02:49.335Z,26.40
2018-11-27T02:05:17.854Z,26.57
2018-11-27T02:07:46.372Z,25.80
2018-11-27T02:10:14.927Z,26.67
2018-11-27T02:12:44.731Z,24.30
2018-11-27T02:15:17.511Z,29.20
2018-11-27T02:17:45.981Z,25.37
2018-11-27T02:20:14.526Z,26.20
2018-11-27T02:22:43.095Z,28.20
2018-11-27T02:25:24.347Z,30.67
2018-11-27T02:27:53.179Z,24.53
2018-11-27T02:30:23.033Z,27.03
2018-11-27T02:32:51.566Z,24.27
2018-11-27T02:35:22.022Z,29.40
2018-11-27T02:37:51.723Z,22.47
2018-11-27T02:40:21.264Z,30.13
2018-11-27T02:42:49.771Z,27.23
2018-11-27T02:45:23.254Z,25.13
2018-11-27T02:47:52.648Z,24.37
2018-11-27T02:50:22.267Z,28.50
2018-11-27T02:52:50.791Z,26.87
2018-11-27T02:55:22.614Z,26.27
2018-11-27T02:57:51.075Z,25.60
2018-11-27T03:00:22.766Z,27.53
2018-11-27T03:02:51.214Z,26.87
2018-11-27T03:05:25.544Z,20.53
2018-11-27T03:07:54.012Z,23.10
2018-11-27T03:10:22.506Z,26.53
2018-11-27T03:12:50.992Z,26.63
2018-11-27T03:15:19.471Z,29.00
2018-11-27T03:17:47.945Z,23.27
2018-11-27T03:20:17.355Z,24.57
2018-11-27T03:22:45.853Z,26.20
2018-11-27T03:25:19.174Z,22.23
2018-11-27T03:27:48.824Z,23.93
2018-11-27T03:30:18.421Z,20.37
2018-11-27T03:32:46.969Z,22.37
2018-11-27T03:35:17.426Z,22.80
2018-11-27T03:37:47.723Z,22.07
2018-11-27T03:40:22.147Z,23.43
2018-11-27T03:42:50.743Z,20.53
2018-11-27T03:45:19.985Z,23.83
2018-11-27T03:47:48.544Z,20.00
2018-11-27T03:50:23.276Z,27.33
2018-11-27T03:52:51.805Z,20.43
2018-11-27T03:55:20.287Z,23.83
2018-11-27T03:57:48.739Z,22.27
2018-11-27T04:00:19.484Z,23.30
2018-11-27T04:02:50.283Z,23.10
2018-11-27T04:05:18.926Z,24.33
2018-11-27T04:07:47.380Z,19.33
2018-11-27T04:10:19.535Z,20.37
2018-11-27T04:12:48.045Z,21.90
2018-11-27T04:15:16.556Z,26.30
2018-11-27T04:17:45.121Z,19.33
2018-11-27T04:20:13.879Z,20.10
2018-11-27T04:22:43.274Z,21.07
2018-11-27T04:25:15.859Z,21.00
2018-11-27T04:27:45.159Z,24.00
2018-11-27T04:30:15.792Z,21.07
2018-11-27T04:32:44.374Z,19.23
2018-11-27T04:35:15.019Z,25.50
2018-11-27T04:37:43.547Z,18.90
2018-11-27T04:40:15.006Z,19.97
2018-11-27T04:49:42.767Z,17.93
2018-11-27T04:52:11.288Z,22.50
2018-11-27T04:54:39.839Z,19.87
2018-11-27T04:57:08.302Z,20.13
2018-11-27T04:59:36.897Z,20.40
2018-11-27T05:02:05.771Z,18.80
2018-11-27T05:04:34.275Z,15.93
2018-11-27T05:07:02.746Z,21.83
2018-11-27T05:09:31.370Z,18.50
2018-11-27T05:11:59.814Z,21.67
2018-11-27T05:14:28.312Z,23.37
2018-11-27T05:16:56.799Z,20.37
2018-11-27T05:19:25.244Z,21.90
2018-11-27T05:21:53.738Z,16.90
2018-11-27T05:24:22.198Z,20.37
2018-11-27T05:26:50.727Z,18.37
2018-11-27T05:29:19.179Z,15.70
2018-11-27T05:31:47.669Z,19.97
2018-11-27T05:34:16.171Z,20.10
2018-11-27T05:36:44.632Z,22.77
2018-11-27T05:39:13.107Z,26.93
2018-11-27T05:41:41.589Z,27.63
2018-11-27T05:44:10.087Z,20.63
2018-11-27T05:46:38.604Z,17.67
2018-11-27T05:49:07.186Z,19.17
2018-11-27T05:51:36.634Z,21.40
2018-11-27T05:54:05.351Z,17.80
2018-11-27T05:56:33.810Z,24.07
2018-11-27T05:59:02.308Z,20.20
2018-11-27T06:01:30.771Z,17.87
2018-11-27T06:03:59.273Z,17.33
2018-11-27T06:06:27.723Z,20.80
2018-11-27T06:08:56.996Z,19.43
2018-11-27T06:11:24.709Z,17.90
2018-11-27T06:13:53.166Z,21.40
2018-11-27T06:16:21.663Z,18.67
2018-11-27T06:18:50.134Z,22.37
2018-11-27T06:21:18.627Z,19.63
2018-11-27T06:23:47.115Z,17.80
2018-11-27T06:26:15.611Z,23.37
2018-11-27T06:28:44.067Z,19.23
2018-11-27T06:31:13.602Z,17.67
2018-11-27T06:33:42.087Z,23.33
2018-11-27T06:36:10.598Z,19.20
2018-11-27T06:38:39.126Z,15.10
2018-11-27T06:41:07.688Z,17.53
2018-11-27T06:43:36.177Z,17.30
2018-11-27T06:46:04.724Z,17.60
2018-11-27T06:48:33.283Z,16.80
2018-11-27T06:51:01.915Z,19.63
2018-11-27T06:53:31.513Z,17.40
2018-11-27T06:56:00.185Z,20.60
2018-11-27T06:58:28.747Z,28.13
2018-11-27T07:00:57.212Z,18.87
2018-11-27T07:03:25.726Z,19.93
2018-11-27T07:05:54.253Z,19.60
2018-11-27T07:08:22.763Z,22.80
2018-11-27T07:10:51.247Z,22.10
2018-11-27T07:13:21.430Z,19.40
2018-11-27T07:15:50.859Z,20.57
2018-11-27T07:18:19.326Z,17.87
2018-11-27T07:20:47.846Z,21.20
2018-11-27T07:23:16.363Z,17.33
2018-11-27T07:25:44.950Z,23.20
2018-11-27T07:28:13.477Z,18.83
2018-11-27T07:30:42.486Z,19.07
2018-11-27T07:33:10.973Z,20.87
2018-11-27T07:35:39.435Z,24.57
2018-11-27T07:38:07.940Z,21.37
2018-11-27T07:40:36.526Z,21.97
2018-11-27T07:43:09.644Z,17.50
2018-11-27T07:45:38.368Z,21.13
2018-11-27T07:48:08.031Z,19.37
2018-11-27T07:50:36.612Z,18.70
2018-11-27T07:53:05.460Z,18.63
2018-11-27T07:55:33.947Z,16.10
2018-11-27T07:58:02.446Z,19.73
2018-11-27T08:00:30.890Z,38.30
2018-11-27T08:02:59.696Z,24.07
2018-11-27T08:05:31.431Z,22.10
2018-11-27T08:08:00.004Z,15.87
2018-11-27T08:10:29.962Z,19.10
2018-11-27T08:12:58.491Z,42.63
2018-11-27T08:15:28.602Z,19.17
2018-11-27T08:17:57.227Z,21.63
2018-11-27T08:20:27.109Z,20.40
2018-11-27T08:22:56.778Z,20.23
2018-11-27T08:25:25.293Z,20.17
2018-11-27T08:27:53.911Z,25.30
2018-11-27T08:30:23.242Z,20.03
2018-11-27T08:32:52.735Z,16.40
2018-11-27T08:35:22.512Z,20.10
2018-11-27T08:37:52.127Z,15.50
2018-11-27T08:40:22.064Z,19.60
2018-11-27T08:42:50.876Z,19.77
2018-11-27T08:45:21.394Z,16.13
2018-11-27T08:47:50.855Z,18.80
2018-11-27T08:50:20.930Z,19.03
2018-11-27T08:53:07.060Z,19.10
2018-11-27T08:55:40.080Z,17.43
2018-11-27T08:58:10.797Z,23.10
2018-11-27T09:00:39.323Z,21.03
2018-11-27T09:03:07.776Z,20.83
2018-11-27T09:05:36.377Z,14.10
2018-11-27T09:08:05.335Z,21.97
2018-11-27T09:10:33.891Z,19.43
2018-11-27T09:13:02.362Z,19.13
2018-11-27T09:15:31.057Z,17.90
2018-11-27T09:18:19.829Z,18.47
2018-11-27T09:20:48.356Z,17.53
2018-11-27T09:23:16.884Z,17.00
2018-11-27T09:25:45.378Z,19.10
2018-11-27T09:28:14.031Z,15.47
2018-11-27T09:30:42.474Z,18.40
2018-11-27T09:33:11.034Z,12.53
2018-11-27T09:35:39.589Z,21.83
2018-11-27T09:38:08.734Z,15.17
2018-11-27T09:40:37.538Z,17.70
2018-11-27T09:43:06.987Z,17.30
2018-11-27T09:45:36.423Z,17.80
2018-11-27T09:48:05.095Z,16.93
2018-11-27T09:50:33.655Z,20.50
2018-11-27T09:53:02.149Z,17.30
2018-11-27T09:55:30.668Z,20.53
2018-11-27T09:58:00.204Z,18.20
2018-11-27T10:00:30.560Z,17.80
2018-11-27T10:03:10.247Z,17.83
2018-11-27T10:05:38.864Z,18.00
2018-11-27T10:08:08.366Z,17.43
2018-11-27T10:10:36.863Z,19.23
2018-11-27T10:13:06.011Z,22.27
2018-11-27T10:15:34.553Z,16.27
2018-11-27T10:18:03.052Z,19.63
2018-11-27T10:20:35.899Z,15.60
2018-11-27T10:23:05.454Z,16.60
2018-11-27T10:25:34.032Z,23.40
2018-11-27T10:28:02.574Z,18.20
2018-11-27T10:30:31.058Z,14.20
2018-11-27T10:32:59.627Z,16.43
2018-11-27T10:35:37.113Z,14.70
2018-11-27T10:38:05.624Z,12.67
2018-11-27T10:40:34.137Z,17.67
2018-11-27T10:43:02.720Z,15.53
2018-11-27T10:45:31.275Z,15.33
2018-11-27T10:47:59.755Z,16.10
2018-11-27T10:50:28.227Z,22.70
2018-11-27T10:52:57.673Z,13.60
2018-11-27T10:55:26.840Z,15.10
2018-11-27T10:57:55.323Z,15.93
2018-11-27T11:00:30.901Z,14.60
2018-11-27T11:03:05.528Z,13.00
2018-11-27T11:05:35.323Z,13.53
2018-11-27T11:08:03.842Z,13.53
2018-11-27T11:10:33.402Z,14.17
2018-11-27T11:13:01.992Z,20.93
2018-11-27T11:15:30.496Z,20.13
2018-11-27T11:17:59.043Z,16.80
2018-11-27T11:20:27.657Z,12.50
2018-11-27T11:22:56.195Z,15.43
2018-11-27T11:25:25.607Z,16.07
2018-11-27T11:27:56.633Z,21.53
2018-11-27T11:30:25.234Z,15.30
2018-11-27T11:32:53.801Z,16.50
2018-11-27T11:35:22.278Z,16.00
2018-11-27T11:37:51.098Z,18.93
2018-11-27T11:40:20.872Z,15.63
2018-11-27T11:42:50.695Z,17.17
2018-11-27T11:45:19.259Z,12.00
2018-11-27T11:47:47.832Z,12.77
2018-11-27T11:50:19.486Z,15.03
2018-11-27T11:52:51.503Z,13.87
2018-11-27T11:55:20.483Z,13.00
2018-11-27T11:57:48.990Z,14.60
2018-11-27T12:00:24.690Z,16.90
2018-11-27T12:02:54.259Z,14.03
2018-11-27T12:05:25.200Z,17.10
2018-11-27T12:07:52.202Z,10.63
2018-11-27T12:10:20.838Z,12.27
2018-11-27T12:12:49.311Z,11.17
2018-11-27T12:15:18.671Z,17.47
2018-11-27T12:17:47.976Z,11.20
2018-11-27T12:20:17.503Z,7.80
2018-11-27T12:22:48.193Z,8.90
2018-11-27T12:25:16.855Z,18.57
2018-11-27T12:27:45.341Z,10.80
2018-11-27T12:30:16.755Z,8.93
2018-11-27T12:32:45.215Z,10.10
2018-11-27T12:35:14.578Z,8.47
2018-11-27T12:37:43.264Z,10.03
2018-11-27T12:40:19.555Z,9.33
2018-11-27T12:42:48.390Z,10.77
2018-11-27T12:45:22.975Z,10.60
2018-11-27T12:47:51.982Z,9.90
2018-11-27T12:50:23.517Z,12.07
2018-11-27T12:52:52.066Z,12.17
2018-11-27T12:55:21.831Z,12.60
2018-11-27T12:57:50.327Z,15.33
2018-11-27T13:00:20.760Z,15.17
2018-11-27T13:02:49.302Z,24.97
2018-11-27T13:05:20.058Z,10.40
2018-11-27T13:07:48.725Z,10.43
2018-11-27T13:10:17.659Z,13.03
2018-11-27T13:12:46.791Z,14.60
2018-11-27T13:15:18.491Z,12.80
2018-11-27T13:17:47.891Z,12.23
2018-11-27T13:20:17.697Z,13.40
2018-11-27T13:22:46.514Z,15.67
2018-11-27T13:25:16.267Z,13.00
2018-11-27T13:27:44.881Z,13.60
2018-11-27T13:30:16.737Z,14.70
2018-11-27T13:32:47.144Z,16.27
2018-11-27T13:35:15.762Z,15.67
2018-11-27T13:37:44.387Z,12.83
2018-11-27T13:40:13.833Z,16.90
2018-11-27T13:42:42.631Z,12.30
2018-11-27T13:45:14.109Z,14.70
2018-11-27T13:47:43.073Z,16.77
2018-11-27T13:50:13.738Z,14.73
2018-11-27T13:52:42.334Z,19.77
2018-11-27T13:55:21.519Z,15.00
2018-11-27T13:57:50.014Z,14.80
2018-11-27T14:00:19.638Z,13.33
2018-11-27T14:02:49.863Z,22.47
2018-11-27T14:05:19.731Z,13.23
2018-11-27T14:07:48.306Z,12.30
2018-11-27T14:10:16.886Z,17.10
2018-11-27T14:12:45.486Z,12.80
2018-11-27T14:15:16.853Z,13.37
2018-11-27T14:17:45.447Z,13.53
2018-11-27T14:20:14.184Z,10.77
2018-11-27T14:22:43.518Z,14.70
2018-11-27T14:25:13.067Z,11.93
2018-11-27T14:27:41.572Z,12.67
2018-11-27T14:30:17.146Z,13.60
2018-11-27T14:32:46.126Z,10.40
2018-11-27T14:35:15.271Z,12.43
2018-11-27T14:37:44.595Z,14.53
2018-11-27T14:40:14.279Z,13.00
2018-11-27T14:42:43.015Z,12.60
2018-11-27T14:45:15.243Z,12.17
2018-11-27T14:47:44.526Z,13.03
2018-11-27T14:50:13.408Z,12.27
2018-11-27T14:52:42.352Z,13.13
2018-11-27T14:55:28.140Z,10.33
2018-11-27T14:57:56.672Z,10.70
2018-11-27T15:00:25.911Z,11.97
2018-11-27T15:02:54.703Z,10.60
2018-11-27T15:05:29.531Z,13.83
2018-11-27T15:07:58.869Z,13.60
2018-11-27T15:10:27.411Z,13.07
2018-11-27T15:12:55.911Z,13.73
2018-11-27T15:15:24.559Z,13.47
2018-11-27T15:17:53.072Z,10.67
2018-11-27T15:20:22.366Z,17.23
2018-11-27T15:22:50.881Z,12.10
2018-11-27T15:25:19.495Z,12.27
2018-11-27T15:27:48.455Z,15.13
2018-11-27T15:30:21.376Z,11.70
2018-11-27T15:32:50.810Z,9.90
2018-11-27T15:35:19.315Z,12.27
2018-11-27T15:37:47.824Z,13.60
2018-11-27T15:40:17.705Z,14.20
2018-11-27T15:42:46.391Z,12.13
2018-11-27T15:45:18.015Z,10.30
2018-11-27T15:47:46.904Z,18.03
2018-11-27T15:50:15.415Z,16.00
2018-11-27T15:52:43.934Z,13.50
2018-11-27T15:55:18.518Z,10.07
2018-11-27T15:57:48.103Z,13.53
2018-11-27T16:00:17.698Z,12.83
2018-11-27T16:02:46.392Z,11.47
2018-11-27T16:05:16.639Z,15.30
2018-11-27T16:07:45.194Z,12.53
2018-11-27T16:10:15.657Z,11.57
2018-11-27T16:12:44.151Z,13.73
2018-11-27T16:15:14.813Z,11.60
2018-11-27T16:17:43.551Z,16.33
2018-11-27T16:20:16.111Z,12.00
2018-11-27T16:22:46.653Z,11.00
2018-11-27T16:25:18.426Z,15.27
2018-11-27T16:27:47.083Z,10.37
2018-11-27T16:30:17.956Z,12.63
2018-11-27T16:32:46.528Z,10.07
2018-11-27T16:35:15.862Z,13.57
2018-11-27T16:37:49.075Z,17.87
2018-11-27T16:40:18.919Z,12.10
2018-11-27T16:42:47.417Z,14.40
2018-11-27T16:45:17.494Z,14.97
2018-11-27T16:47:46.416Z,11.87
2018-11-27T16:50:15.978Z,12.77
2018-11-27T16:52:44.914Z,11.87
2018-11-27T16:55:14.541Z,11.40
2018-11-27T16:57:43.167Z,9.80
2018-11-27T17:00:20.327Z,20.70
2018-11-27T17:02:50.470Z,15.67
2018-11-27T17:05:18.660Z,13.10
2018-11-27T17:07:47.223Z,12.47
2018-11-27T17:10:16.997Z,14.63
2018-11-27T17:12:46.366Z,12.57
2018-11-27T17:15:16.140Z,14.30
2018-11-27T17:17:44.695Z,14.37
2018-11-27T17:20:20.843Z,11.20
2018-11-27T17:22:49.364Z,15.60
2018-11-27T17:25:17.861Z,14.80
2018-11-27T17:27:46.541Z,18.73
2018-11-27T17:30:19.305Z,14.70
2018-11-27T17:32:48.070Z,15.93
2018-11-27T17:35:16.610Z,20.77
2018-11-27T17:37:45.147Z,16.13
2018-11-27T17:40:14.044Z,20.17
2018-11-27T17:42:42.667Z,18.33
2018-11-27T17:45:13.408Z,18.80
2018-11-27T17:47:42.108Z,22.13
2018-11-27T17:50:12.812Z,16.10
2018-11-27T17:52:41.364Z,19.43
2018-11-27T17:55:10.875Z,22.37
2018-11-27T17:57:39.374Z,17.00
2018-11-27T18:00:16.535Z,17.60
2018-11-27T18:02:46.979Z,27.50
2018-11-27T18:05:15.450Z,22.13
2018-11-27T18:07:43.965Z,17.00
2018-11-27T18:10:12.719Z,21.20
2018-11-27T18:12:41.448Z,20.33
2018-11-27T18:15:12.314Z,21.13
2018-11-27T18:17:40.938Z,25.13
2018-11-27T18:20:11.391Z,27.67
2018-11-27T18:22:40.154Z,20.93
2018-11-27T18:25:23.493Z,20.63
2018-11-27T18:27:51.999Z,19.87
2018-11-27T18:30:23.262Z,18.23
2018-11-27T18:32:51.872Z,20.60
2018-11-27T18:35:22.621Z,25.63
2018-11-27T18:37:51.735Z,25.60
2018-11-27T18:40:20.650Z,21.00
2018-11-27T18:42:49.379Z,30.90
2018-11-27T18:45:24.238Z,20.90
2018-11-27T18:47:52.920Z,35.00
2018-11-27T18:50:22.508Z,21.77
2018-11-27T18:52:51.044Z,25.37
2018-11-27T18:55:19.624Z,21.73
2018-11-27T18:57:48.628Z,18.13
2018-11-27T19:00:24.087Z,24.70
2018-11-27T19:02:53.787Z,23.23
2018-11-27T19:05:22.435Z,23.50
2018-11-27T19:07:51.010Z,21.60
2018-11-27T19:10:24.642Z,24.57
2018-11-27T19:12:54.146Z,25.80
2018-11-27T19:15:25.227Z,25.93
2018-11-27T19:17:55.542Z,22.80
2018-11-27T19:20:25.438Z,27.43
2018-11-27T19:22:54.027Z,28.27
2018-11-27T19:25:22.825Z,30.87
2018-11-27T19:27:51.511Z,25.43
2018-11-27T19:30:21.442Z,22.87
2018-11-27T19:32:50.100Z,22.40
2018-11-27T19:35:25.023Z,27.07
2018-11-27T19:37:49.488Z,27.93
2018-11-27T19:40:19.143Z,27.53
2018-11-27T19:42:47.706Z,26.73
2018-11-27T19:45:24.225Z,26.93
2018-11-27T19:47:53.411Z,30.03
2018-11-27T19:50:21.983Z,24.23
2018-11-27T19:52:52.858Z,33.83
2018-11-27T19:55:21.380Z,22.87
2018-11-27T19:57:50.044Z,30.97
2018-11-27T20:00:24.790Z,27.37
2018-11-27T20:02:53.523Z,23.90
2018-11-27T20:05:23.378Z,27.07
2018-11-27T20:07:52.111Z,28.87
2018-11-27T20:10:20.683Z,27.67
2018-11-27T20:12:49.332Z,28.77
2018-11-27T20:15:19.701Z,29.53
2018-11-27T20:17:49.049Z,27.13
2018-11-27T20:20:18.863Z,29.33
2018-11-27T20:22:47.426Z,32.37
2018-11-27T20:25:17.498Z,32.33
2018-11-27T20:27:46.142Z,28.70
2018-11-27T20:30:18.623Z,27.87
2018-11-27T20:32:49.015Z,27.97
2018-11-27T20:35:18.308Z,29.33
2018-11-27T20:37:47.578Z,31.27
2018-11-27T20:40:18.527Z,32.60
2018-11-27T20:42:47.071Z,37.00
2018-11-27T20:45:19.640Z,25.90
2018-11-27T20:47:47.459Z,30.80
2018-11-27T20:50:17.484Z,27.57
2018-11-27T20:52:46.116Z,28.87
2018-11-27T21:02:14.231Z,25.33
2018-11-27T21:04:43.090Z,27.93
2018-11-27T21:07:11.669Z,27.20
2018-11-27T21:09:40.196Z,30.47
2018-11-27T21:12:08.694Z,27.90
2018-11-27T21:14:37.139Z,32.93
2018-11-27T21:17:05.918Z,27.60
2018-11-27T21:19:35.519Z,26.33
2018-11-27T21:22:05.284Z,28.20
2018-11-27T21:24:33.793Z,27.37
2018-11-27T21:27:02.919Z,30.20
2018-11-27T21:29:31.504Z,31.20
2018-11-27T21:32:00.139Z,29.77
2018-11-27T21:34:28.667Z,30.83
2018-11-27T21:36:57.320Z,26.70
2018-11-27T21:39:25.864Z,34.20
2018-11-27T21:41:54.339Z,27.87
2018-11-27T21:44:23.147Z,26.30
2018-11-27T21:46:51.591Z,32.27
2018-11-27T21:49:20.151Z,32.50
2018-11-27T21:51:48.704Z,29.60
2018-11-27T21:54:17.227Z,29.60
2018-11-27T21:56:45.831Z,30.40
2018-11-27T21:59:14.337Z,33.50
2018-11-27T22:01:42.855Z,30.37
2018-11-27T22:04:12.351Z,24.40
2018-11-27T22:06:40.867Z,28.83
2018-11-27T22:09:09.405Z,23.33
2018-11-27T22:11:38.017Z,32.20
2018-11-27T22:14:06.767Z,34.33
2018-11-27T22:16:35.359Z,30.73
2018-11-27T22:19:03.960Z,27.50
2018-11-27T22:21:32.761Z,33.70
2018-11-27T22:24:01.343Z,28.77
2018-11-27T22:26:30.095Z,28.20
2018-11-27T22:28:58.615Z,31.03
2018-11-27T22:31:27.256Z,28.17
2018-11-27T22:33:55.885Z,32.30
2018-11-27T22:36:24.525Z,27.53
2018-11-27T22:38:53.039Z,31.07
2018-11-27T22:41:21.675Z,29.37
2018-11-27T22:43:50.425Z,30.77
2018-11-27T22:46:18.986Z,32.80
2018-11-27T22:48:47.507Z,32.37
2018-11-27T22:51:16.048Z,27.43
2018-11-27T22:53:44.612Z,25.27
2018-11-27T22:56:13.275Z,36.97
2018-11-27T22:58:41.787Z,31.73
2018-11-27T23:01:10.254Z,31.43
2018-11-27T23:03:38.792Z,33.87
2018-11-27T23:06:07.414Z,26.03
2018-11-27T23:08:35.961Z,26.60
2018-11-27T23:11:04.575Z,24.53
2018-11-27T23:13:33.164Z,31.73
2018-11-27T23:16:01.900Z,31.27
2018-11-27T23:18:30.755Z,31.67
2018-11-27T23:20:59.355Z,29.93
2018-11-27T23:23:27.943Z,30.37
2018-11-27T23:25:56.415Z,30.10
2018-11-27T23:28:24.899Z,28.03
2018-11-27T23:30:53.425Z,30.97
2018-11-27T23:33:22.319Z,39.30
2018-11-27T23:35:50.923Z,30.80
2018-11-27T23:38:20.516Z,35.30
2018-11-27T23:40:49.137Z,35.10
2018-11-27T23:43:17.647Z,28.40
2018-11-27T23:45:46.143Z,34.67
2018-11-27T23:48:14.558Z,36.90
2018-11-27T23:50:44.162Z,29.53
2018-11-27T23:53:12.704Z,28.17
2018-11-27T23:55:41.450Z,32.10
2018-11-27T23:58:09.970Z,33.90
